createdAt,value
2017-06-12T00:02:20.688Z,50.90
2017-06-12T00:04:48.965Z,50.80
2017-06-12T00:07:17.536Z,51.30
2017-06-12T00:09:45.801Z,51.20
2017-06-12T00:12:14.072Z,51.80
2017-06-12T00:14:42.548Z,51.80
2017-06-12T00:17:11.580Z,52.40
2017-06-12T00:19:39.856Z,51.70
2017-06-12T00:22:08.198Z,52.50
2017-06-12T00:24:36.467Z,52.90
2017-06-12T00:27:04.732Z,52.60
2017-06-12T00:29:33.244Z,53.30
2017-06-12T00:32:02.272Z,52.00
2017-06-12T00:34:30.948Z,51.90
2017-06-12T00:36:59.263Z,52.00
2017-06-12T00:39:28.288Z,51.70
2017-06-12T00:41:56.556Z,51.50
2017-06-12T00:44:25.060Z,51.80
2017-06-12T00:46:54.091Z,53.20
2017-06-12T00:49:22.355Z,53.10
2017-06-12T00:51:50.784Z,53.80
2017-06-12T00:54:19.060Z,53.10
2017-06-12T00:56:47.327Z,54.50
2017-06-12T00:59:15.628Z,54.50
2017-06-12T01:01:43.902Z,54.10
2017-06-12T01:04:12.172Z,54.50
2017-06-12T01:06:41.254Z,54.20
2017-06-12T01:09:09.528Z,54.20
2017-06-12T01:11:37.788Z,54.50
2017-06-12T01:14:06.100Z,54.60
2017-06-12T01:16:34.375Z,54.20
2017-06-12T01:19:02.644Z,54.10
2017-06-12T01:21:30.948Z,54.10
2017-06-12T01:23:59.233Z,54.40
2017-06-12T01:26:27.499Z,53.90
2017-06-12T01:28:55.801Z,54.40
2017-06-12T01:31:24.072Z,54.40
2017-06-12T01:33:53.113Z,54.20
2017-06-12T01:36:21.555Z,54.20
2017-06-12T01:38:49.872Z,54.20
2017-06-12T01:41:18.904Z,55.30
2017-06-12T01:43:47.408Z,55.30
2017-06-12T01:46:16.449Z,55.90
2017-06-12T01:48:44.711Z,55.80
2017-06-12T01:51:13.012Z,56.10
2017-06-12T01:53:42.052Z,58.20
2017-06-12T01:56:10.324Z,58.10
2017-06-12T01:58:38.924Z,58.10
2017-06-12T02:01:07.960Z,58.10
2017-06-12T02:03:36.236Z,57.50
2017-06-12T02:06:04.652Z,58.10
2017-06-12T02:08:32.932Z,57.80
2017-06-12T02:11:01.204Z,58.10
2017-06-12T02:13:29.504Z,58.20
2017-06-12T02:15:57.773Z,58.90
2017-06-12T02:18:26.812Z,59.70
2017-06-12T02:20:55.119Z,58.90
2017-06-12T02:23:24.149Z,59.40
2017-06-12T02:25:52.416Z,59.40
2017-06-12T02:28:20.724Z,59.80
2017-06-12T02:30:49.760Z,60.20
2017-06-12T02:33:18.028Z,60.10
2017-06-12T02:35:46.456Z,60.40
2017-06-12T02:38:14.726Z,60.00
2017-06-12T02:40:42.993Z,60.70
2017-06-12T02:43:11.400Z,60.60
2017-06-12T02:45:40.458Z,61.80
2017-06-12T02:48:08.731Z,61.70
2017-06-12T02:50:37.212Z,61.80
2017-06-12T02:53:06.249Z,62.90
2017-06-12T02:55:34.528Z,62.40
2017-06-12T02:58:02.832Z,63.90
2017-06-12T03:00:31.100Z,64.70
2017-06-12T03:02:59.370Z,65.40
2017-06-12T03:05:27.680Z,66.10
2017-06-12T03:07:55.952Z,65.40
2017-06-12T03:10:33.044Z,66.50
2017-06-12T03:13:01.312Z,65.90
2017-06-12T03:15:29.587Z,66.00
2017-06-12T03:17:57.891Z,66.80
2017-06-12T03:20:26.168Z,65.90
2017-06-12T03:22:55.204Z,66.50
2017-06-12T03:25:23.520Z,66.40
2017-06-12T03:27:52.557Z,67.50
2017-06-12T03:30:20.828Z,67.50
2017-06-12T03:32:49.137Z,67.90
2017-06-12T03:35:17.405Z,68.40
2017-06-12T03:37:45.672Z,69.30
2017-06-12T03:40:14.031Z,69.10
2017-06-12T03:42:42.317Z,67.90
2017-06-12T03:45:10.597Z,68.20
2017-06-12T03:47:39.004Z,68.90
2017-06-12T03:50:07.280Z,68.60
2017-06-12T03:52:35.584Z,69.60
2017-06-12T03:55:04.700Z,70.20
2017-06-12T03:57:32.980Z,69.70
2017-06-12T04:00:01.252Z,69.00
2017-06-12T04:02:29.658Z,69.30
2017-06-12T04:04:57.924Z,69.70
2017-06-12T04:07:26.197Z,70.10
2017-06-12T04:09:55.268Z,67.50
2017-06-12T04:12:23.540Z,67.00
2017-06-12T04:14:52.580Z,67.60
2017-06-12T04:17:20.882Z,67.50
2017-06-12T04:19:49.913Z,70.50
2017-06-12T04:22:18.192Z,70.40
2017-06-12T04:24:46.604Z,69.00
2017-06-12T04:27:14.871Z,69.20
2017-06-12T04:29:43.164Z,68.00
2017-06-12T04:32:11.480Z,66.80
2017-06-12T04:34:40.519Z,65.70
2017-06-12T04:37:08.775Z,65.70
2017-06-12T04:39:37.084Z,65.70
2017-06-12T04:42:05.360Z,66.20
2017-06-12T04:44:33.639Z,66.10
2017-06-12T04:47:01.963Z,66.30
2017-06-12T04:49:30.987Z,65.50
2017-06-12T04:51:59.255Z,65.10
2017-06-12T04:54:27.560Z,65.40
2017-06-12T04:56:56.605Z,65.50
2017-06-12T04:59:24.876Z,65.40
2017-06-12T05:01:53.362Z,67.60
2017-06-12T05:04:21.641Z,68.00
2017-06-12T05:06:49.908Z,68.40
2017-06-12T05:09:18.228Z,68.20
2017-06-12T05:11:46.496Z,68.10
2017-06-12T05:14:14.759Z,67.90
2017-06-12T05:16:43.060Z,68.90
2017-06-12T05:19:11.324Z,69.00
2017-06-12T05:21:39.605Z,65.70
2017-06-12T05:24:07.907Z,67.30
2017-06-12T05:26:36.185Z,66.00
2017-06-12T05:29:05.221Z,65.80
2017-06-12T05:31:33.516Z,65.60
2017-06-12T05:34:02.550Z,64.70
2017-06-12T05:36:30.820Z,64.60
2017-06-12T05:38:59.123Z,63.40
2017-06-12T05:41:28.161Z,63.70
2017-06-12T05:43:56.427Z,63.60
2017-06-12T05:46:24.721Z,61.70
2017-06-12T05:48:53.756Z,63.90
2017-06-12T05:51:22.016Z,63.90
2017-06-12T05:53:50.321Z,63.10
2017-06-12T05:56:19.360Z,62.50
2017-06-12T05:58:47.624Z,62.30
2017-06-12T06:01:15.948Z,60.90
2017-06-12T06:03:44.211Z,61.80
2017-06-12T06:06:12.479Z,60.80
2017-06-12T06:08:40.800Z,64.30
2017-06-12T06:11:09.081Z,63.10
2017-06-12T06:13:38.116Z,60.30
2017-06-12T06:16:06.435Z,60.20
2017-06-12T06:18:34.707Z,60.50
2017-06-12T06:21:02.979Z,59.70
2017-06-12T06:23:32.305Z,60.10
2017-06-12T06:26:00.576Z,60.50
2017-06-12T06:28:29.608Z,60.20
2017-06-12T06:30:58.119Z,60.10
2017-06-12T06:33:26.388Z,59.90
2017-06-12T06:35:55.416Z,59.50
2017-06-12T06:38:23.908Z,59.40
2017-06-12T06:40:52.171Z,59.30
2017-06-12T06:43:20.440Z,59.00
2017-06-12T06:45:48.917Z,60.10
2017-06-12T06:48:17.973Z,59.40
2017-06-12T06:50:46.232Z,59.30
2017-06-12T06:53:14.730Z,58.10
2017-06-12T06:55:43.764Z,57.80
2017-06-12T06:58:12.040Z,57.80
2017-06-12T07:00:40.359Z,56.70
2017-06-12T07:03:08.628Z,56.90
2017-06-12T07:05:36.901Z,56.00
2017-06-12T07:08:05.413Z,55.00
2017-06-12T07:10:34.461Z,54.50
2017-06-12T07:13:02.728Z,54.80
2017-06-12T07:15:31.048Z,54.20
2017-06-12T07:17:59.328Z,55.30
2017-06-12T07:20:27.608Z,53.10
2017-06-12T07:22:55.917Z,52.70
2017-06-12T07:25:24.192Z,53.10
2017-06-12T07:27:52.464Z,53.50
2017-06-12T07:30:20.912Z,54.10
2017-06-12T07:32:49.188Z,51.50
2017-06-12T07:35:17.476Z,52.00
2017-06-12T07:37:45.780Z,51.90
2017-06-12T07:40:14.820Z,52.00
2017-06-12T07:42:43.088Z,52.00
2017-06-12T07:45:11.400Z,52.00
2017-06-12T07:47:39.672Z,51.70
2017-06-12T07:50:07.952Z,51.80
2017-06-12T07:52:36.282Z,51.20
2017-06-12T07:55:04.552Z,52.40
2017-06-12T07:57:32.824Z,53.10
2017-06-12T08:00:01.376Z,53.30
2017-06-12T08:02:29.645Z,52.30
2017-06-12T08:04:57.909Z,52.10
2017-06-12T08:07:26.285Z,51.40
2017-06-12T08:09:54.540Z,50.50
2017-06-12T08:12:22.812Z,50.60
2017-06-12T08:14:51.233Z,50.50
2017-06-12T08:17:20.268Z,51.60
2017-06-12T08:19:48.536Z,51.70
2017-06-12T08:22:16.967Z,52.00
2017-06-12T08:24:45.252Z,50.80
2017-06-12T08:27:13.537Z,50.70
2017-06-12T08:29:42.008Z,50.10
2017-06-12T08:32:11.059Z,50.00
2017-06-12T08:34:39.328Z,49.90
2017-06-12T08:37:07.635Z,49.40
2017-06-12T08:39:35.912Z,50.20
2017-06-12T08:42:04.188Z,50.00
2017-06-12T08:44:32.496Z,50.70
2017-06-12T08:47:01.534Z,49.30
2017-06-12T08:49:29.833Z,49.30
2017-06-12T08:51:58.170Z,50.00
2017-06-12T08:54:26.464Z,51.10
2017-06-12T08:56:55.503Z,52.90
2017-06-12T08:59:23.811Z,52.80
2017-06-12T09:01:52.852Z,49.80
2017-06-12T09:04:21.128Z,50.30
2017-06-12T09:06:49.415Z,50.60
2017-06-12T09:09:18.464Z,50.60
2017-06-12T09:11:46.769Z,50.50
2017-06-12T09:14:15.384Z,51.40
2017-06-12T09:16:43.664Z,54.00
2017-06-12T09:19:11.980Z,52.80
2017-06-12T09:21:40.347Z,53.00
2017-06-12T09:24:08.621Z,54.50
2017-06-12T09:26:36.909Z,53.00
2017-06-12T09:29:05.221Z,49.40
2017-06-12T09:31:33.499Z,49.50
2017-06-12T09:34:01.767Z,49.50
2017-06-12T09:36:30.077Z,49.70
2017-06-12T09:38:58.356Z,49.40
2017-06-12T09:41:26.619Z,49.20
2017-06-12T09:43:54.924Z,49.10
2017-06-12T09:46:23.205Z,48.40
2017-06-12T09:48:51.468Z,49.30
2017-06-12T09:51:19.804Z,50.90
2017-06-12T09:53:48.148Z,48.90
2017-06-12T09:56:16.440Z,49.90
2017-06-12T09:58:44.937Z,50.60
2017-06-12T10:01:14.065Z,52.60
2017-06-12T10:03:42.332Z,52.10
2017-06-12T10:06:10.656Z,50.60
2017-06-12T10:08:38.936Z,49.60
2017-06-12T10:11:07.213Z,49.00
2017-06-12T10:13:35.521Z,50.20
2017-06-12T10:16:04.560Z,51.40
2017-06-12T10:18:32.836Z,51.40
2017-06-12T10:21:01.329Z,52.00
2017-06-12T10:23:30.376Z,49.60
2017-06-12T10:25:58.632Z,49.50
2017-06-12T10:28:26.944Z,47.60
2017-06-12T10:30:55.216Z,48.70
2017-06-12T10:33:23.496Z,48.30
2017-06-12T10:35:51.796Z,48.10
2017-06-12T10:38:20.065Z,49.30
2017-06-12T10:40:48.332Z,47.80
2017-06-12T10:43:17.632Z,48.30
2017-06-12T10:45:46.671Z,46.30
2017-06-12T10:48:14.940Z,46.10
2017-06-12T10:50:43.272Z,46.40
2017-06-12T10:53:11.540Z,47.30
2017-06-12T10:55:39.820Z,46.80
2017-06-12T10:58:08.431Z,47.50
2017-06-12T11:00:37.532Z,44.50
2017-06-12T11:03:05.816Z,45.10
2017-06-12T11:05:34.148Z,44.30
2017-06-12T11:08:02.419Z,46.80
2017-06-12T11:10:30.708Z,48.20
2017-06-12T11:12:59.044Z,45.10
2017-06-12T11:15:28.916Z,45.30
2017-06-12T11:17:57.208Z,43.80
2017-06-12T11:20:25.517Z,44.50
2017-06-12T11:22:53.787Z,43.50
2017-06-12T11:25:28.824Z,43.60
2017-06-12T11:27:59.119Z,43.30
2017-06-12T11:30:27.386Z,44.80
2017-06-12T11:32:55.704Z,43.80
2017-06-12T11:35:23.972Z,44.70
2017-06-12T11:37:52.245Z,44.80
2017-06-12T11:40:20.555Z,42.60
2017-06-12T11:42:48.828Z,42.70
2017-06-12T11:45:17.099Z,40.80
2017-06-12T11:47:45.635Z,40.80
2017-06-12T11:50:14.556Z,40.60
2017-06-12T11:52:42.828Z,40.60
2017-06-12T11:55:11.308Z,42.50
2017-06-12T11:57:40.384Z,40.80
2017-06-12T12:00:08.632Z,40.80
2017-06-12T12:02:37.068Z,40.40
2017-06-12T12:05:05.341Z,40.60
2017-06-12T12:07:33.611Z,44.00
2017-06-12T12:10:02.112Z,42.40
2017-06-12T12:12:31.152Z,37.60
2017-06-12T12:14:59.440Z,37.60
2017-06-12T12:17:27.764Z,38.10
2017-06-12T12:19:56.036Z,39.60
2017-06-12T12:22:24.329Z,37.30
2017-06-12T12:24:52.648Z,40.60
2017-06-12T12:27:20.920Z,38.30
2017-06-12T12:29:49.196Z,40.70
2017-06-12T12:32:17.508Z,38.90
2017-06-12T12:34:45.792Z,40.90
2017-06-12T12:37:14.060Z,37.50
2017-06-12T12:39:42.476Z,37.20
2017-06-12T12:42:11.522Z,36.80
2017-06-12T12:44:39.801Z,36.80
2017-06-12T12:47:08.885Z,38.30
2017-06-12T12:49:37.928Z,36.40
2017-06-12T12:52:06.208Z,36.40
2017-06-12T12:54:34.529Z,36.70
2017-06-12T12:57:02.800Z,37.00
2017-06-12T12:59:31.072Z,37.40
2017-06-12T13:02:00.379Z,38.00
2017-06-12T13:04:28.647Z,37.00
2017-06-12T13:06:56.927Z,38.30
2017-06-12T13:09:26.037Z,40.80
2017-06-12T13:11:54.311Z,40.80
2017-06-12T13:14:22.573Z,36.80
2017-06-12T13:16:51.013Z,41.70
2017-06-12T13:19:19.287Z,36.40
2017-06-12T13:21:47.569Z,37.40
2017-06-12T13:24:15.892Z,35.10
2017-06-12T13:26:44.167Z,36.50
2017-06-12T13:29:12.447Z,36.20
2017-06-12T13:31:40.867Z,37.00
2017-06-12T13:34:09.909Z,37.30
2017-06-12T13:36:38.194Z,37.20
2017-06-12T13:39:07.268Z,40.10
2017-06-12T13:41:35.536Z,35.30
2017-06-12T13:44:04.584Z,34.00
2017-06-12T13:46:33.000Z,33.90
2017-06-12T13:49:01.276Z,36.40
2017-06-12T13:51:29.552Z,33.60
2017-06-12T13:53:58.068Z,33.40
2017-06-12T13:56:27.128Z,36.40
2017-06-12T13:58:55.396Z,36.10
2017-06-12T14:01:23.733Z,34.30
2017-06-12T14:03:52.016Z,33.90
2017-06-12T14:06:20.316Z,35.50
2017-06-12T14:08:48.736Z,31.80
2017-06-12T14:11:17.013Z,32.50
2017-06-12T14:13:45.301Z,32.30
2017-06-12T14:16:13.611Z,32.40
2017-06-12T14:18:41.888Z,32.00
2017-06-12T14:21:10.169Z,31.60
2017-06-12T14:23:39.265Z,29.30
2017-06-12T14:26:07.557Z,29.30
2017-06-12T14:28:35.833Z,32.60
2017-06-12T14:31:04.157Z,29.30
2017-06-12T14:33:33.881Z,28.30
2017-06-12T14:36:02.152Z,28.20
2017-06-12T14:38:30.468Z,27.70
2017-06-12T14:40:58.750Z,30.00
2017-06-12T14:43:27.021Z,28.30
2017-06-12T14:45:55.545Z,27.60
2017-06-12T14:48:24.587Z,28.00
2017-06-12T14:50:52.860Z,27.90
2017-06-12T14:53:21.345Z,31.60
2017-06-12T14:55:50.384Z,28.80
2017-06-12T14:58:18.668Z,28.20
2017-06-12T15:00:47.165Z,26.80
2017-06-12T15:03:16.200Z,27.80
2017-06-12T15:05:44.471Z,27.70
2017-06-12T15:08:12.800Z,24.80
2017-06-12T15:10:41.068Z,25.80
2017-06-12T15:13:09.341Z,26.20
2017-06-12T15:15:37.955Z,26.40
2017-06-12T15:18:06.992Z,26.00
2017-06-12T15:20:35.284Z,25.90
2017-06-12T15:23:04.667Z,26.70
2017-06-12T15:25:32.944Z,28.80
2017-06-12T15:28:01.212Z,27.20
2017-06-12T15:30:29.764Z,27.80
2017-06-12T15:32:58.804Z,26.80
2017-06-12T15:35:27.084Z,26.80
2017-06-12T15:37:55.397Z,27.20
2017-06-12T15:40:23.684Z,27.50
2017-06-12T15:42:51.956Z,27.20
2017-06-12T15:45:20.260Z,27.10
2017-06-12T15:47:49.305Z,27.00
2017-06-12T15:50:17.571Z,27.00
2017-06-12T15:52:46.176Z,26.90
2017-06-12T15:55:14.450Z,27.10
2017-06-12T15:57:42.711Z,27.40
2017-06-12T16:00:11.150Z,27.90
2017-06-12T16:02:40.185Z,29.60
2017-06-12T16:05:08.452Z,29.60
2017-06-12T16:07:36.748Z,28.30
2017-06-12T16:10:05.024Z,28.80
2017-06-12T16:12:34.069Z,26.60
2017-06-12T16:15:02.501Z,26.50
2017-06-12T16:17:30.774Z,27.00
2017-06-12T16:19:59.051Z,27.60
2017-06-12T16:22:27.546Z,26.70
2017-06-12T16:24:56.596Z,28.50
2017-06-12T16:27:24.861Z,28.60
2017-06-12T16:29:53.168Z,27.90
2017-06-12T16:32:21.447Z,28.10
2017-06-12T16:34:49.724Z,28.30
2017-06-12T16:37:18.019Z,27.80
2017-06-12T16:39:46.302Z,28.50
2017-06-12T16:42:15.332Z,27.50
2017-06-12T16:44:43.748Z,27.40
2017-06-12T16:47:12.800Z,26.80
2017-06-12T16:49:41.080Z,26.70
2017-06-12T16:52:10.159Z,27.30
2017-06-12T16:54:39.197Z,26.20
2017-06-12T16:57:07.466Z,26.20
2017-06-12T16:59:35.786Z,26.00
2017-06-12T17:02:04.812Z,26.20
2017-06-12T17:04:33.071Z,26.00
2017-06-12T17:07:01.396Z,26.20
2017-06-12T17:09:29.673Z,26.10
2017-06-12T17:11:57.940Z,27.00
2017-06-12T17:14:26.260Z,25.20
2017-06-12T17:16:55.289Z,27.10
2017-06-12T17:19:23.556Z,27.00
2017-06-12T17:21:51.852Z,25.90
2017-06-12T17:24:20.883Z,27.20
2017-06-12T17:26:49.151Z,27.20
2017-06-12T17:29:17.483Z,27.40
2017-06-12T17:31:45.753Z,27.20
2017-06-12T17:34:14.020Z,26.70
2017-06-12T17:36:42.327Z,26.40
2017-06-12T17:39:11.368Z,27.20
2017-06-12T17:41:39.649Z,26.70
2017-06-12T17:44:08.136Z,27.00
2017-06-12T17:46:37.176Z,26.20
2017-06-12T17:49:05.449Z,26.20
2017-06-12T17:51:33.755Z,26.30
2017-06-12T17:54:02.800Z,27.10
2017-06-12T17:56:31.067Z,27.00
2017-06-12T17:58:59.479Z,27.30
2017-06-12T18:01:27.752Z,27.30
2017-06-12T18:03:56.028Z,26.70
2017-06-12T18:06:24.341Z,28.00
2017-06-12T18:08:53.364Z,27.90
2017-06-12T18:11:21.640Z,27.80
2017-06-12T18:13:49.952Z,27.10
2017-06-12T18:16:18.229Z,27.70
2017-06-12T18:18:46.504Z,27.70
2017-06-12T18:21:14.807Z,28.90
2017-06-12T18:23:43.072Z,28.90
2017-06-12T18:26:12.108Z,28.20
2017-06-12T18:28:40.424Z,28.20
2017-06-12T18:31:09.461Z,28.90
2017-06-12T18:33:37.733Z,28.80
2017-06-12T18:36:06.053Z,28.80
2017-06-12T18:38:34.319Z,28.80
2017-06-12T18:41:02.596Z,29.10
2017-06-12T18:43:31.108Z,29.80
2017-06-12T18:46:00.144Z,28.70
2017-06-12T18:48:28.416Z,28.70
2017-06-12T18:50:56.729Z,28.60
2017-06-12T18:53:25.760Z,28.60
2017-06-12T18:55:54.023Z,28.60
2017-06-12T18:58:22.467Z,28.60
2017-06-12T19:00:50.749Z,28.50
2017-06-12T19:03:21.736Z,29.80
2017-06-12T19:05:50.016Z,29.80
2017-06-12T19:08:19.047Z,30.50
2017-06-12T19:10:47.357Z,30.50
2017-06-12T19:13:16.388Z,30.60
2017-06-12T19:15:44.657Z,30.00
2017-06-12T19:18:12.956Z,29.50
2017-06-12T19:20:41.995Z,30.60
2017-06-12T19:23:10.284Z,30.60
2017-06-12T19:25:38.584Z,32.30
2017-06-12T19:28:06.851Z,31.10
2017-06-12T19:30:35.133Z,32.50
2017-06-12T19:33:03.656Z,31.70
2017-06-12T19:35:32.694Z,31.00
2017-06-12T19:38:00.971Z,31.00
2017-06-12T19:40:29.275Z,31.40
2017-06-12T19:42:57.556Z,31.90
2017-06-12T19:45:25.832Z,32.20
2017-06-12T19:47:54.157Z,32.70
2017-06-12T19:50:23.199Z,32.80
2017-06-12T19:52:51.480Z,32.70
2017-06-12T19:55:20.668Z,33.30
2017-06-12T19:57:49.704Z,33.60
2017-06-12T20:00:17.976Z,33.60
2017-06-12T20:02:46.265Z,33.80
2017-06-12T20:05:15.295Z,35.40
2017-06-12T20:07:43.573Z,34.70
2017-06-12T20:10:11.897Z,34.90
2017-06-12T20:12:40.171Z,36.00
2017-06-12T20:15:08.438Z,35.00
2017-06-12T20:17:36.740Z,35.80
2017-06-12T20:20:05.014Z,34.40
2017-06-12T20:22:34.052Z,34.40
2017-06-12T20:25:02.361Z,34.20
2017-06-12T20:27:31.392Z,34.60
2017-06-12T20:29:59.669Z,34.60
2017-06-12T20:32:27.991Z,35.20
2017-06-12T20:34:56.273Z,34.90
2017-06-12T20:37:24.540Z,35.70
2017-06-12T20:39:52.861Z,35.20
2017-06-12T20:42:21.144Z,35.00
2017-06-12T20:44:49.416Z,35.50
2017-06-12T20:47:17.745Z,35.50
2017-06-12T20:49:46.012Z,35.50
2017-06-12T20:52:14.284Z,35.50
2017-06-12T20:54:42.592Z,35.50
2017-06-12T20:57:10.857Z,35.40
2017-06-12T20:59:39.908Z,39.20
2017-06-12T21:02:08.313Z,39.10
2017-06-12T21:04:37.353Z,38.80
2017-06-12T21:07:05.624Z,38.20
2017-06-12T21:09:33.959Z,36.60
2017-06-12T21:12:02.242Z,37.80
2017-06-12T21:14:30.507Z,37.40
2017-06-12T21:16:58.827Z,38.50
2017-06-12T21:19:27.105Z,38.50
2017-06-12T21:21:56.172Z,38.90
2017-06-12T21:24:24.476Z,38.90
2017-06-12T21:26:53.521Z,39.50
2017-06-12T21:29:21.805Z,40.00
2017-06-12T21:31:53.680Z,39.50
2017-06-12T21:34:22.720Z,40.90
2017-06-12T21:36:50.990Z,41.40
2017-06-12T21:39:22.996Z,40.90
2017-06-12T21:41:53.137Z,41.20
2017-06-12T21:44:21.404Z,40.70
2017-06-12T21:46:49.707Z,40.80
2017-06-12T21:49:18.741Z,42.70
2017-06-12T21:51:47.009Z,42.70
2017-06-12T21:54:15.317Z,42.30
2017-06-12T21:56:43.592Z,43.30
2017-06-12T21:59:12.608Z,43.70
2017-06-12T22:01:40.916Z,43.50
2017-06-12T22:04:09.989Z,44.30
2017-06-12T22:06:39.016Z,44.60
2017-06-12T22:09:07.320Z,44.50
2017-06-12T22:11:35.585Z,44.50
2017-06-12T22:14:04.626Z,44.50
2017-06-12T22:16:32.940Z,45.00
2017-06-12T22:19:01.981Z,45.30
2017-06-12T22:21:30.251Z,45.10
2017-06-12T22:23:58.562Z,45.50
2017-06-12T22:26:26.839Z,45.50
2017-06-12T22:28:55.153Z,45.70
2017-06-12T22:31:23.621Z,46.60
2017-06-12T22:33:52.681Z,48.50
2017-06-12T22:36:20.990Z,47.60
2017-06-12T22:38:49.280Z,47.70
2017-06-12T22:41:17.563Z,48.20
2017-06-12T22:43:45.824Z,47.40
2017-06-12T22:46:14.133Z,47.20
2017-06-12T22:48:42.420Z,47.90
2017-06-12T22:51:10.700Z,48.00
2017-06-12T22:53:39.009Z,48.10
2017-06-12T22:56:07.276Z,48.30
2017-06-12T22:58:35.560Z,48.10
2017-06-12T23:01:04.003Z,48.90
2017-06-12T23:03:32.288Z,49.20
2017-06-12T23:06:00.625Z,48.80
2017-06-12T23:08:29.678Z,49.00
2017-06-12T23:10:58.719Z,49.80
2017-06-12T23:13:26.984Z,49.30
2017-06-12T23:15:55.312Z,50.00
2017-06-12T23:18:23.588Z,50.20
2017-06-12T23:20:52.788Z,50.70
2017-06-12T23:23:21.104Z,50.00
2017-06-12T23:25:55.852Z,50.60
2017-06-12T23:28:24.627Z,50.50
2017-06-12T23:30:56.824Z,50.60
2017-06-12T23:33:25.919Z,50.50
2017-06-12T23:35:55.163Z,51.00
2017-06-12T23:38:23.457Z,50.90
2017-06-12T23:40:52.528Z,50.40
2017-06-12T23:43:20.796Z,50.30
2017-06-12T23:45:49.834Z,51.70
2017-06-12T23:48:18.331Z,51.60
2017-06-12T23:50:46.604Z,52.10
2017-06-12T23:53:15.657Z,53.30
2017-06-12T23:55:43.978Z,53.20
2017-06-12T23:58:12.259Z,53.00
